sensor_id;sensor_type;location;lat;lon;timestamp;temperature;humidity
3954;DHT22;1991;48.682;9.030;2023-09-08T00:01:37;17.30;99.90
3954;DHT22;1991;48.682;9.030;2023-09-08T00:04:02;17.30;99.90
3954;DHT22;1991;48.682;9.030;2023-09-08T00:06:29;17.20;99.90
3954;DHT22;1991;48.682;9.030;2023-09-08T00:08:54;17.20;99.90
3954;DHT22;1991;48.682;9.030;2023-09-08T00:11:20;17.20;99.90
3954;DHT22;1991;48.682;9.030;2023-09-08T00:13:46;17.10;99.90
3954;DHT22;1991;48.682;9.030;2023-09-08T00:16:11;17.10;99.90
3954;DHT22;1991;48.682;9.030;2023-09-08T00:18:37;17.10;99.90
3954;DHT22;1991;48.682;9.030;2023-09-08T00:21:02;17.10;99.90
3954;DHT22;1991;48.682;9.030;2023-09-08T00:23:28;17.10;99.90
3954;DHT22;1991;48.682;9.030;2023-09-08T00:25:54;17.00;99.90
3954;DHT22;1991;48.682;9.030;2023-09-08T00:28:19;17.00;99.90
3954;DHT22;1991;48.682;9.030;2023-09-08T00:30:45;16.90;99.90
3954;DHT22;1991;48.682;9.030;2023-09-08T00:33:10;16.90;99.90
3954;DHT22;1991;48.682;9.030;2023-09-08T00:35:38;16.90;99.90
3954;DHT22;1991;48.682;9.030;2023-09-08T00:38:03;16.80;99.90
3954;DHT22;1991;48.682;9.030;2023-09-08T00:40:29;16.80;99.90
3954;DHT22;1991;48.682;9.030;2023-09-08T00:42:55;16.80;99.90
3954;DHT22;1991;48.682;9.030;2023-09-08T00:45:20;16.80;99.90
3954;DHT22;1991;48.682;9.030;2023-09-08T00:47:46;16.70;99.90
3954;DHT22;1991;48.682;9.030;2023-09-08T00:50:12;16.80;99.90
3954;DHT22;1991;48.682;9.030;2023-09-08T00:52:37;16.70;99.90
3954;DHT22;1991;48.682;9.030;2023-09-08T00:55:04;16.70;99.90
3954;DHT22;1991;48.682;9.030;2023-09-08T00:57:30;16.60;99.90
3954;DHT22;1991;48.682;9.030;2023-09-08T00:59:56;16.60;99.90
3954;DHT22;1991;48.682;9.030;2023-09-08T01:02:22;16.60;99.90
3954;DHT22;1991;48.682;9.030;2023-09-08T01:04:48;16.60;99.90
3954;DHT22;1991;48.682;9.030;2023-09-08T01:07:14;16.60;99.90
3954;DHT22;1991;48.682;9.030;2023-09-08T01:09:41;16.60;99.90
3954;DHT22;1991;48.682;9.030;2023-09-08T01:12:07;16.50;99.90
3954;DHT22;1991;48.682;9.030;2023-09-08T01:14:33;16.50;99.90
3954;DHT22;1991;48.682;9.030;2023-09-08T01:16:58;16.50;99.90
3954;DHT22;1991;48.682;9.030;2023-09-08T01:19:24;16.50;99.90
3954;DHT22;1991;48.682;9.030;2023-09-08T01:22:16;16.50;99.90
3954;DHT22;1991;48.682;9.030;2023-09-08T01:27:38;16.40;99.90
3954;DHT22;1991;48.682;9.030;2023-09-08T01:30:06;16.40;99.90
3954;DHT22;1991;48.682;9.030;2023-09-08T01:32:34;16.40;99.90
3954;DHT22;1991;48.682;9.030;2023-09-08T01:35:00;16.40;99.90
3954;DHT22;1991;48.682;9.030;2023-09-08T01:37:26;16.40;99.90
3954;DHT22;1991;48.682;9.030;2023-09-08T01:39:52;16.30;99.90
3954;DHT22;1991;48.682;9.030;2023-09-08T01:42:17;16.40;99.90
3954;DHT22;1991;48.682;9.030;2023-09-08T01:44:43;16.30;99.90
3954;DHT22;1991;48.682;9.030;2023-09-08T01:47:08;16.30;99.90
3954;DHT22;1991;48.682;9.030;2023-09-08T01:49:34;16.30;99.90
3954;DHT22;1991;48.682;9.030;2023-09-08T01:51:59;16.30;99.90
3954;DHT22;1991;48.682;9.030;2023-09-08T01:54:25;16.20;99.90
3954;DHT22;1991;48.682;9.030;2023-09-08T01:56:50;16.20;99.90
3954;DHT22;1991;48.682;9.030;2023-09-08T01:59:17;16.20;99.90
3954;DHT22;1991;48.682;9.030;2023-09-08T02:01:42;16.20;99.90
3954;DHT22;1991;48.682;9.030;2023-09-08T02:04:08;16.10;99.90
3954;DHT22;1991;48.682;9.030;2023-09-08T02:06:33;16.00;99.90
3954;DHT22;1991;48.682;9.030;2023-09-08T02:08:59;16.00;99.90
3954;DHT22;1991;48.682;9.030;2023-09-08T02:11:24;16.00;99.90
3954;DHT22;1991;48.682;9.030;2023-09-08T02:13:50;16.00;99.90
3954;DHT22;1991;48.682;9.030;2023-09-08T02:16:16;15.90;99.90
3954;DHT22;1991;48.682;9.030;2023-09-08T02:18:42;16.00;99.90
3954;DHT22;1991;48.682;9.030;2023-09-08T02:21:08;15.90;99.90
3954;DHT22;1991;48.682;9.030;2023-09-08T02:23:34;15.90;99.90
3954;DHT22;1991;48.682;9.030;2023-09-08T02:25:59;15.90;99.90
3954;DHT22;1991;48.682;9.030;2023-09-08T02:28:25;15.80;99.90
3954;DHT22;1991;48.682;9.030;2023-09-08T02:30:50;15.80;99.90
3954;DHT22;1991;48.682;9.030;2023-09-08T02:33:16;15.80;99.90
3954;DHT22;1991;48.682;9.030;2023-09-08T02:35:42;15.70;99.90
3954;DHT22;1991;48.682;9.030;2023-09-08T02:38:08;15.80;99.90
3954;DHT22;1991;48.682;9.030;2023-09-08T02:40:34;15.70;99.90
3954;DHT22;1991;48.682;9.030;2023-09-08T02:43:03;15.70;99.90
3954;DHT22;1991;48.682;9.030;2023-09-08T02:45:29;15.70;99.90
3954;DHT22;1991;48.682;9.030;2023-09-08T02:47:55;15.70;99.90
3954;DHT22;1991;48.682;9.030;2023-09-08T02:50:21;15.60;99.90
3954;DHT22;1991;48.682;9.030;2023-09-08T02:52:47;15.60;99.90
3954;DHT22;1991;48.682;9.030;2023-09-08T02:55:12;15.60;99.90
3954;DHT22;1991;48.682;9.030;2023-09-08T02:57:39;15.60;99.90
3954;DHT22;1991;48.682;9.030;2023-09-08T03:00:05;15.60;99.90
3954;DHT22;1991;48.682;9.030;2023-09-08T03:02:32;15.60;99.90
3954;DHT22;1991;48.682;9.030;2023-09-08T03:04:57;15.50;99.90
3954;DHT22;1991;48.682;9.030;2023-09-08T03:07:23;15.50;99.90
3954;DHT22;1991;48.682;9.030;2023-09-08T03:09:48;15.50;99.90
3954;DHT22;1991;48.682;9.030;2023-09-08T03:12:14;15.50;99.90
3954;DHT22;1991;48.682;9.030;2023-09-08T03:14:40;15.40;99.90
3954;DHT22;1991;48.682;9.030;2023-09-08T03:17:05;15.50;99.90
3954;DHT22;1991;48.682;9.030;2023-09-08T03:19:31;15.40;99.90
3954;DHT22;1991;48.682;9.030;2023-09-08T03:21:57;15.40;99.90
3954;DHT22;1991;48.682;9.030;2023-09-08T03:24:22;15.40;99.90
3954;DHT22;1991;48.682;9.030;2023-09-08T03:26:48;15.40;99.90
3954;DHT22;1991;48.682;9.030;2023-09-08T03:29:13;15.40;99.90
3954;DHT22;1991;48.682;9.030;2023-09-08T03:31:39;15.30;99.90
3954;DHT22;1991;48.682;9.030;2023-09-08T03:34:05;15.30;99.90
3954;DHT22;1991;48.682;9.030;2023-09-08T03:36:30;15.20;99.90
3954;DHT22;1991;48.682;9.030;2023-09-08T03:38:56;15.20;99.90
3954;DHT22;1991;48.682;9.030;2023-09-08T03:41:23;15.20;99.90
3954;DHT22;1991;48.682;9.030;2023-09-08T03:43:49;15.20;99.90
3954;DHT22;1991;48.682;9.030;2023-09-08T03:46:14;15.20;99.90
3954;DHT22;1991;48.682;9.030;2023-09-08T03:48:40;15.20;99.90
3954;DHT22;1991;48.682;9.030;2023-09-08T03:51:05;15.20;99.90
3954;DHT22;1991;48.682;9.030;2023-09-08T03:53:31;15.20;99.90
3954;DHT22;1991;48.682;9.030;2023-09-08T03:55:57;15.20;99.90
3954;DHT22;1991;48.682;9.030;2023-09-08T03:58:22;15.10;99.90
3954;DHT22;1991;48.682;9.030;2023-09-08T04:00:48;15.10;99.90
3954;DHT22;1991;48.682;9.030;2023-09-08T04:03:13;15.10;99.90
3954;DHT22;1991;48.682;9.030;2023-09-08T04:05:39;15.10;99.90
3954;DHT22;1991;48.682;9.030;2023-09-08T04:08:05;15.10;99.90
3954;DHT22;1991;48.682;9.030;2023-09-08T04:10:31;15.00;99.90
3954;DHT22;1991;48.682;9.030;2023-09-08T04:12:56;15.00;99.90
3954;DHT22;1991;48.682;9.030;2023-09-08T04:15:22;15.00;99.90
3954;DHT22;1991;48.682;9.030;2023-09-08T04:17:48;15.00;99.90
3954;DHT22;1991;48.682;9.030;2023-09-08T04:20:13;15.00;99.90
3954;DHT22;1991;48.682;9.030;2023-09-08T04:22:42;15.00;99.90
3954;DHT22;1991;48.682;9.030;2023-09-08T04:25:08;15.00;99.90
3954;DHT22;1991;48.682;9.030;2023-09-08T04:27:33;15.00;99.90
3954;DHT22;1991;48.682;9.030;2023-09-08T04:30:00;15.00;99.90
3954;DHT22;1991;48.682;9.030;2023-09-08T04:32:26;14.90;99.90
3954;DHT22;1991;48.682;9.030;2023-09-08T04:34:51;14.90;99.90
3954;DHT22;1991;48.682;9.030;2023-09-08T04:37:17;14.90;99.90
3954;DHT22;1991;48.682;9.030;2023-09-08T04:39:43;14.90;99.90
3954;DHT22;1991;48.682;9.030;2023-09-08T04:42:09;14.90;99.90
3954;DHT22;1991;48.682;9.030;2023-09-08T04:44:35;14.80;99.90
3954;DHT22;1991;48.682;9.030;2023-09-08T04:47:00;14.90;99.90
3954;DHT22;1991;48.682;9.030;2023-09-08T04:49:26;14.90;99.90
3954;DHT22;1991;48.682;9.030;2023-09-08T04:51:53;14.90;99.90
3954;DHT22;1991;48.682;9.030;2023-09-08T04:54:19;14.90;99.90
3954;DHT22;1991;48.682;9.030;2023-09-08T04:56:45;14.90;99.90
3954;DHT22;1991;48.682;9.030;2023-09-08T04:59:11;14.90;99.90
3954;DHT22;1991;48.682;9.030;2023-09-08T05:01:36;14.90;99.90
3954;DHT22;1991;48.682;9.030;2023-09-08T05:04:03;14.90;99.90
3954;DHT22;1991;48.682;9.030;2023-09-08T05:06:29;14.90;99.90
3954;DHT22;1991;48.682;9.030;2023-09-08T05:08:55;14.90;99.90
3954;DHT22;1991;48.682;9.030;2023-09-08T05:11:20;14.90;99.90
3954;DHT22;1991;48.682;9.030;2023-09-08T05:13:46;14.90;99.90
3954;DHT22;1991;48.682;9.030;2023-09-08T05:16:12;15.00;99.90
3954;DHT22;1991;48.682;9.030;2023-09-08T05:18:39;15.00;99.90
3954;DHT22;1991;48.682;9.030;2023-09-08T05:21:04;15.10;99.90
3954;DHT22;1991;48.682;9.030;2023-09-08T05:23:30;15.10;99.90
3954;DHT22;1991;48.682;9.030;2023-09-08T05:25:56;15.20;99.90
3954;DHT22;1991;48.682;9.030;2023-09-08T05:28:21;15.20;99.90
3954;DHT22;1991;48.682;9.030;2023-09-08T05:30:47;15.30;99.90
3954;DHT22;1991;48.682;9.030;2023-09-08T05:33:12;15.40;99.90
3954;DHT22;1991;48.682;9.030;2023-09-08T05:35:38;15.50;99.90
3954;DHT22;1991;48.682;9.030;2023-09-08T05:38:04;15.60;99.90
3954;DHT22;1991;48.682;9.030;2023-09-08T05:40:30;15.70;99.90
3954;DHT22;1991;48.682;9.030;2023-09-08T05:42:56;15.80;99.90
3954;DHT22;1991;48.682;9.030;2023-09-08T05:45:21;15.90;99.90
3954;DHT22;1991;48.682;9.030;2023-09-08T05:47:47;16.10;99.90
3954;DHT22;1991;48.682;9.030;2023-09-08T05:50:14;16.20;99.90
3954;DHT22;1991;48.682;9.030;2023-09-08T05:52:40;16.40;99.90
3954;DHT22;1991;48.682;9.030;2023-09-08T05:55:06;16.50;99.90
3954;DHT22;1991;48.682;9.030;2023-09-08T05:57:31;16.70;99.90
3954;DHT22;1991;48.682;9.030;2023-09-08T05:59:57;16.90;99.90
3954;DHT22;1991;48.682;9.030;2023-09-08T06:02:23;17.10;99.90
3954;DHT22;1991;48.682;9.030;2023-09-08T06:04:48;17.20;99.90
3954;DHT22;1991;48.682;9.030;2023-09-08T06:07:14;17.30;99.90
3954;DHT22;1991;48.682;9.030;2023-09-08T06:09:39;17.50;99.90
3954;DHT22;1991;48.682;9.030;2023-09-08T06:12:05;17.60;99.90
3954;DHT22;1991;48.682;9.030;2023-09-08T06:14:31;17.70;99.90
3954;DHT22;1991;48.682;9.030;2023-09-08T06:16:56;17.80;99.90
3954;DHT22;1991;48.682;9.030;2023-09-08T06:19:22;18.00;99.90
3954;DHT22;1991;48.682;9.030;2023-09-08T06:21:47;18.10;99.90
3954;DHT22;1991;48.682;9.030;2023-09-08T06:24:13;18.40;99.90
3954;DHT22;1991;48.682;9.030;2023-09-08T06:26:39;18.70;99.90
3954;DHT22;1991;48.682;9.030;2023-09-08T06:29:04;18.80;99.90
3954;DHT22;1991;48.682;9.030;2023-09-08T06:31:30;19.00;99.90
3954;DHT22;1991;48.682;9.030;2023-09-08T06:33:56;19.10;99.90
3954;DHT22;1991;48.682;9.030;2023-09-08T06:36:21;19.20;99.90
3954;DHT22;1991;48.682;9.030;2023-09-08T06:38:47;19.20;99.90
3954;DHT22;1991;48.682;9.030;2023-09-08T06:41:13;19.20;99.90
3954;DHT22;1991;48.682;9.030;2023-09-08T06:43:39;19.40;99.90
3954;DHT22;1991;48.682;9.030;2023-09-08T06:46:04;19.60;99.90
3954;DHT22;1991;48.682;9.030;2023-09-08T06:48:30;20.00;99.90
3954;DHT22;1991;48.682;9.030;2023-09-08T06:50:56;20.20;99.90
3954;DHT22;1991;48.682;9.030;2023-09-08T06:53:22;20.50;99.90
3954;DHT22;1991;48.682;9.030;2023-09-08T06:55:48;20.80;99.90
3954;DHT22;1991;48.682;9.030;2023-09-08T06:58:14;21.10;99.90
3954;DHT22;1991;48.682;9.030;2023-09-08T07:00:42;21.30;99.90
3954;DHT22;1991;48.682;9.030;2023-09-08T07:03:08;21.60;99.90
3954;DHT22;1991;48.682;9.030;2023-09-08T07:05:39;21.90;99.90
3954;DHT22;1991;48.682;9.030;2023-09-08T07:08:05;22.20;99.90
3954;DHT22;1991;48.682;9.030;2023-09-08T07:10:32;22.50;99.90
3954;DHT22;1991;48.682;9.030;2023-09-08T07:12:57;22.70;99.90
3954;DHT22;1991;48.682;9.030;2023-09-08T07:15:23;22.90;99.90
3954;DHT22;1991;48.682;9.030;2023-09-08T07:17:48;23.10;99.90
3954;DHT22;1991;48.682;9.030;2023-09-08T07:20:14;23.30;99.90
3954;DHT22;1991;48.682;9.030;2023-09-08T07:22:39;23.50;99.90
3954;DHT22;1991;48.682;9.030;2023-09-08T07:25:06;23.70;99.90
3954;DHT22;1991;48.682;9.030;2023-09-08T07:27:31;23.90;99.90
3954;DHT22;1991;48.682;9.030;2023-09-08T07:29:57;24.10;99.90
3954;DHT22;1991;48.682;9.030;2023-09-08T07:32:22;24.20;99.90
3954;DHT22;1991;48.682;9.030;2023-09-08T07:34:50;24.40;99.90
3954;DHT22;1991;48.682;9.030;2023-09-08T07:37:23;24.70;99.90
3954;DHT22;1991;48.682;9.030;2023-09-08T07:39:50;25.00;99.30
3954;DHT22;1991;48.682;9.030;2023-09-08T07:42:16;25.10;98.80
3954;DHT22;1991;48.682;9.030;2023-09-08T07:44:41;25.20;97.70
3954;DHT22;1991;48.682;9.030;2023-09-08T07:47:07;25.30;97.00
3954;DHT22;1991;48.682;9.030;2023-09-08T07:49:36;25.30;96.70
3954;DHT22;1991;48.682;9.030;2023-09-08T07:52:02;25.50;96.80
3954;DHT22;1991;48.682;9.030;2023-09-08T07:54:29;25.60;96.70
3954;DHT22;1991;48.682;9.030;2023-09-08T07:56:55;25.80;95.70
3954;DHT22;1991;48.682;9.030;2023-09-08T07:59:21;25.90;94.60
3954;DHT22;1991;48.682;9.030;2023-09-08T08:01:46;26.00;94.80
3954;DHT22;1991;48.682;9.030;2023-09-08T08:04:12;26.00;94.10
3954;DHT22;1991;48.682;9.030;2023-09-08T08:06:38;26.10;94.00
3954;DHT22;1991;48.682;9.030;2023-09-08T08:09:03;26.40;93.90
3954;DHT22;1991;48.682;9.030;2023-09-08T08:11:29;26.70;93.40
3954;DHT22;1991;48.682;9.030;2023-09-08T08:13:55;26.90;92.40
3954;DHT22;1991;48.682;9.030;2023-09-08T08:16:22;27.20;92.50
3954;DHT22;1991;48.682;9.030;2023-09-08T08:18:48;27.50;92.10
3954;DHT22;1991;48.682;9.030;2023-09-08T08:21:13;27.60;91.20
3954;DHT22;1991;48.682;9.030;2023-09-08T08:23:39;27.80;90.70
3954;DHT22;1991;48.682;9.030;2023-09-08T08:26:05;28.00;90.20
3954;DHT22;1991;48.682;9.030;2023-09-08T08:28:30;28.20;90.20
3954;DHT22;1991;48.682;9.030;2023-09-08T08:30:56;28.40;89.20
3954;DHT22;1991;48.682;9.030;2023-09-08T08:33:22;28.70;87.90
3954;DHT22;1991;48.682;9.030;2023-09-08T08:35:51;29.00;87.60
3954;DHT22;1991;48.682;9.030;2023-09-08T08:38:17;28.90;85.80
3954;DHT22;1991;48.682;9.030;2023-09-08T08:40:43;29.10;85.40
3954;DHT22;1991;48.682;9.030;2023-09-08T08:43:08;29.30;84.90
3954;DHT22;1991;48.682;9.030;2023-09-08T08:45:34;29.50;83.90
3954;DHT22;1991;48.682;9.030;2023-09-08T08:48:03;29.40;82.00
3954;DHT22;1991;48.682;9.030;2023-09-08T08:50:29;29.60;82.20
3954;DHT22;1991;48.682;9.030;2023-09-08T08:52:56;29.90;81.30
3954;DHT22;1991;48.682;9.030;2023-09-08T08:55:24;29.90;79.60
3954;DHT22;1991;48.682;9.030;2023-09-08T08:57:50;30.10;79.00
3954;DHT22;1991;48.682;9.030;2023-09-08T09:00:17;30.40;77.50
3954;DHT22;1991;48.682;9.030;2023-09-08T09:02:44;30.70;76.30
3954;DHT22;1991;48.682;9.030;2023-09-08T09:05:13;30.90;74.60
3954;DHT22;1991;48.682;9.030;2023-09-08T09:07:43;31.00;74.20
3954;DHT22;1991;48.682;9.030;2023-09-08T09:10:09;31.20;73.40
3954;DHT22;1991;48.682;9.030;2023-09-08T09:12:37;31.50;70.90
3954;DHT22;1991;48.682;9.030;2023-09-08T09:15:04;32.00;70.60
3954;DHT22;1991;48.682;9.030;2023-09-08T09:17:32;32.90;69.70
3954;DHT22;1991;48.682;9.030;2023-09-08T09:22:40;40.30;58.10
3954;DHT22;1991;48.682;9.030;2023-09-08T09:25:06;43.90;51.60
3954;DHT22;1991;48.682;9.030;2023-09-08T09:27:33;46.80;46.00
3954;DHT22;1991;48.682;9.030;2023-09-08T09:30:04;49.00;42.00
3954;DHT22;1991;48.682;9.030;2023-09-08T09:32:30;50.60;39.10
3954;DHT22;1991;48.682;9.030;2023-09-08T09:34:57;52.00;37.30
3954;DHT22;1991;48.682;9.030;2023-09-08T09:37:23;53.10;36.20
3954;DHT22;1991;48.682;9.030;2023-09-08T09:39:53;53.80;35.70
3954;DHT22;1991;48.682;9.030;2023-09-08T09:42:20;54.30;34.90
3954;DHT22;1991;48.682;9.030;2023-09-08T09:44:49;55.00;34.50
3954;DHT22;1991;48.682;9.030;2023-09-08T09:47:17;55.10;34.10
3954;DHT22;1991;48.682;9.030;2023-09-08T09:49:47;55.80;33.50
3954;DHT22;1991;48.682;9.030;2023-09-08T09:52:14;56.20;33.40
3954;DHT22;1991;48.682;9.030;2023-09-08T09:54:43;56.20;32.80
3954;DHT22;1991;48.682;9.030;2023-09-08T09:57:13;56.70;32.40
3954;DHT22;1991;48.682;9.030;2023-09-08T09:59:40;56.70;32.10
3954;DHT22;1991;48.682;9.030;2023-09-08T10:02:12;54.80;31.80
3954;DHT22;1991;48.682;9.030;2023-09-08T10:04:42;49.90;32.50
3954;DHT22;1991;48.682;9.030;2023-09-08T10:07:09;46.30;35.60
3954;DHT22;1991;48.682;9.030;2023-09-08T10:09:37;43.40;38.30
3954;DHT22;1991;48.682;9.030;2023-09-08T10:12:05;41.20;40.50
3954;DHT22;1991;48.682;9.030;2023-09-08T10:14:32;39.30;43.10
3954;DHT22;1991;48.682;9.030;2023-09-08T10:17:01;38.20;44.30
3954;DHT22;1991;48.682;9.030;2023-09-08T10:19:28;37.40;45.20
3954;DHT22;1991;48.682;9.030;2023-09-08T10:21:56;37.10;46.40
3954;DHT22;1991;48.682;9.030;2023-09-08T10:24:26;36.80;46.60
3954;DHT22;1991;48.682;9.030;2023-09-08T10:27:08;36.40;47.20
3954;DHT22;1991;48.682;9.030;2023-09-08T10:29:35;36.20;48.10
3954;DHT22;1991;48.682;9.030;2023-09-08T10:32:00;36.30;47.70
3954;DHT22;1991;48.682;9.030;2023-09-08T10:34:27;36.30;47.70
3954;DHT22;1991;48.682;9.030;2023-09-08T10:36:54;36.20;47.50
3954;DHT22;1991;48.682;9.030;2023-09-08T10:39:32;36.30;48.30
3954;DHT22;1991;48.682;9.030;2023-09-08T10:44:55;36.10;45.90
3954;DHT22;1991;48.682;9.030;2023-09-08T10:47:25;36.00;47.30
3954;DHT22;1991;48.682;9.030;2023-09-08T10:49:52;36.00;47.70
3954;DHT22;1991;48.682;9.030;2023-09-08T10:52:21;36.10;47.60
3954;DHT22;1991;48.682;9.030;2023-09-08T10:54:52;36.00;46.40
3954;DHT22;1991;48.682;9.030;2023-09-08T10:57:22;36.00;47.70
3954;DHT22;1991;48.682;9.030;2023-09-08T10:59:55;36.10;48.00
3954;DHT22;1991;48.682;9.030;2023-09-08T11:05:00;36.10;48.30
3954;DHT22;1991;48.682;9.030;2023-09-08T11:07:26;35.90;46.20
3954;DHT22;1991;48.682;9.030;2023-09-08T11:09:51;35.90;47.10
3954;DHT22;1991;48.682;9.030;2023-09-08T11:12:17;35.90;47.50
3954;DHT22;1991;48.682;9.030;2023-09-08T11:14:45;35.60;46.40
3954;DHT22;1991;48.682;9.030;2023-09-08T11:17:11;35.30;46.00
3954;DHT22;1991;48.682;9.030;2023-09-08T11:19:47;35.10;47.20
3954;DHT22;1991;48.682;9.030;2023-09-08T11:22:13;35.10;48.80
3954;DHT22;1991;48.682;9.030;2023-09-08T11:24:41;35.20;48.80
3954;DHT22;1991;48.682;9.030;2023-09-08T11:27:07;35.50;48.70
3954;DHT22;1991;48.682;9.030;2023-09-08T11:29:33;35.40;49.10
3954;DHT22;1991;48.682;9.030;2023-09-08T11:31:58;35.60;48.30
3954;DHT22;1991;48.682;9.030;2023-09-08T11:34:24;35.60;48.60
3954;DHT22;1991;48.682;9.030;2023-09-08T11:36:50;35.60;47.80
3954;DHT22;1991;48.682;9.030;2023-09-08T11:39:17;35.50;47.30
3954;DHT22;1991;48.682;9.030;2023-09-08T11:41:42;35.40;48.40
3954;DHT22;1991;48.682;9.030;2023-09-08T11:44:08;35.60;47.40
3954;DHT22;1991;48.682;9.030;2023-09-08T11:46:40;35.40;47.30
3954;DHT22;1991;48.682;9.030;2023-09-08T11:49:06;35.50;47.00
3954;DHT22;1991;48.682;9.030;2023-09-08T11:51:31;35.40;48.10
3954;DHT22;1991;48.682;9.030;2023-09-08T11:53:57;35.40;47.40
3954;DHT22;1991;48.682;9.030;2023-09-08T11:56:23;35.60;46.20
3954;DHT22;1991;48.682;9.030;2023-09-08T11:58:49;35.60;44.80
3954;DHT22;1991;48.682;9.030;2023-09-08T12:01:15;35.40;44.90
3954;DHT22;1991;48.682;9.030;2023-09-08T12:03:54;35.10;45.20
3954;DHT22;1991;48.682;9.030;2023-09-08T12:06:20;34.80;45.70
3954;DHT22;1991;48.682;9.030;2023-09-08T12:08:48;34.40;46.30
3954;DHT22;1991;48.682;9.030;2023-09-08T12:11:14;34.10;47.40
3954;DHT22;1991;48.682;9.030;2023-09-08T12:13:39;34.20;47.90
3954;DHT22;1991;48.682;9.030;2023-09-08T12:16:19;34.30;47.70
3954;DHT22;1991;48.682;9.030;2023-09-08T12:18:44;34.30;47.50
3954;DHT22;1991;48.682;9.030;2023-09-08T12:21:11;34.40;48.80
3954;DHT22;1991;48.682;9.030;2023-09-08T12:23:47;34.60;49.30
3954;DHT22;1991;48.682;9.030;2023-09-08T12:26:14;34.50;48.90
3954;DHT22;1991;48.682;9.030;2023-09-08T12:28:42;34.60;48.30
3954;DHT22;1991;48.682;9.030;2023-09-08T12:31:08;34.50;48.70
3954;DHT22;1991;48.682;9.030;2023-09-08T12:33:34;34.50;48.60
3954;DHT22;1991;48.682;9.030;2023-09-08T12:36:13;34.50;48.60
3954;DHT22;1991;48.682;9.030;2023-09-08T12:38:40;34.50;48.70
3954;DHT22;1991;48.682;9.030;2023-09-08T12:41:05;34.60;50.10
3954;DHT22;1991;48.682;9.030;2023-09-08T12:43:31;34.40;49.70
3954;DHT22;1991;48.682;9.030;2023-09-08T12:45:56;34.10;50.70
3954;DHT22;1991;48.682;9.030;2023-09-08T12:48:22;34.30;52.70
3954;DHT22;1991;48.682;9.030;2023-09-08T12:50:48;34.40;53.00
3954;DHT22;1991;48.682;9.030;2023-09-08T12:53:14;34.50;52.00
3954;DHT22;1991;48.682;9.030;2023-09-08T12:55:40;34.50;52.10
3954;DHT22;1991;48.682;9.030;2023-09-08T12:58:06;34.70;52.40
3954;DHT22;1991;48.682;9.030;2023-09-08T13:00:31;34.50;52.30
3954;DHT22;1991;48.682;9.030;2023-09-08T13:02:57;34.60;52.50
3954;DHT22;1991;48.682;9.030;2023-09-08T13:05:22;34.70;52.80
3954;DHT22;1991;48.682;9.030;2023-09-08T13:07:48;34.70;52.40
3954;DHT22;1991;48.682;9.030;2023-09-08T13:10:13;34.70;52.70
3954;DHT22;1991;48.682;9.030;2023-09-08T13:12:40;34.60;52.20
3954;DHT22;1991;48.682;9.030;2023-09-08T13:15:06;34.60;52.70
3954;DHT22;1991;48.682;9.030;2023-09-08T13:17:32;34.50;52.40
3954;DHT22;1991;48.682;9.030;2023-09-08T13:19:57;34.30;51.90
3954;DHT22;1991;48.682;9.030;2023-09-08T13:22:23;34.20;53.10
3954;DHT22;1991;48.682;9.030;2023-09-08T13:24:49;34.10;53.50
3954;DHT22;1991;48.682;9.030;2023-09-08T13:27:14;34.20;53.20
3954;DHT22;1991;48.682;9.030;2023-09-08T13:29:42;34.10;54.10
3954;DHT22;1991;48.682;9.030;2023-09-08T13:32:08;34.00;53.60
3954;DHT22;1991;48.682;9.030;2023-09-08T13:34:33;34.00;53.90
3954;DHT22;1991;48.682;9.030;2023-09-08T13:37:01;34.00;53.60
3954;DHT22;1991;48.682;9.030;2023-09-08T13:39:27;34.00;53.30
3954;DHT22;1991;48.682;9.030;2023-09-08T13:41:54;33.90;53.40
3954;DHT22;1991;48.682;9.030;2023-09-08T13:44:23;33.90;53.10
3954;DHT22;1991;48.682;9.030;2023-09-08T13:46:49;33.90;53.80
3954;DHT22;1991;48.682;9.030;2023-09-08T13:49:15;33.90;53.40
3954;DHT22;1991;48.682;9.030;2023-09-08T13:51:42;33.70;52.90
3954;DHT22;1991;48.682;9.030;2023-09-08T13:54:09;33.50;53.60
3954;DHT22;1991;48.682;9.030;2023-09-08T13:56:34;33.40;53.70
3954;DHT22;1991;48.682;9.030;2023-09-08T13:59:03;33.20;53.80
3954;DHT22;1991;48.682;9.030;2023-09-08T14:01:29;33.20;53.70
3954;DHT22;1991;48.682;9.030;2023-09-08T14:03:58;33.20;53.20
3954;DHT22;1991;48.682;9.030;2023-09-08T14:06:25;33.10;54.10
3954;DHT22;1991;48.682;9.030;2023-09-08T14:08:51;33.10;53.80
3954;DHT22;1991;48.682;9.030;2023-09-08T14:11:17;32.90;53.30
3954;DHT22;1991;48.682;9.030;2023-09-08T14:13:42;32.60;53.10
3954;DHT22;1991;48.682;9.030;2023-09-08T14:16:08;32.40;54.10
3954;DHT22;1991;48.682;9.030;2023-09-08T14:18:34;32.20;54.50
3954;DHT22;1991;48.682;9.030;2023-09-08T14:21:00;32.00;55.10
3954;DHT22;1991;48.682;9.030;2023-09-08T14:23:26;31.80;55.00
3954;DHT22;1991;48.682;9.030;2023-09-08T14:25:51;31.50;56.30
3954;DHT22;1991;48.682;9.030;2023-09-08T14:28:17;31.50;56.90
3954;DHT22;1991;48.682;9.030;2023-09-08T14:30:43;31.50;56.00
3954;DHT22;1991;48.682;9.030;2023-09-08T14:33:10;31.30;56.10
3954;DHT22;1991;48.682;9.030;2023-09-08T14:35:35;31.40;56.90
3954;DHT22;1991;48.682;9.030;2023-09-08T14:38:06;31.30;56.30
3954;DHT22;1991;48.682;9.030;2023-09-08T14:40:31;31.20;56.70
3954;DHT22;1991;48.682;9.030;2023-09-08T14:42:57;31.00;57.20
3954;DHT22;1991;48.682;9.030;2023-09-08T14:45:22;30.90;57.10
3954;DHT22;1991;48.682;9.030;2023-09-08T14:47:48;30.90;57.30
3954;DHT22;1991;48.682;9.030;2023-09-08T14:50:13;30.90;57.20
3954;DHT22;1991;48.682;9.030;2023-09-08T14:52:39;30.80;57.40
3954;DHT22;1991;48.682;9.030;2023-09-08T14:55:06;30.70;57.20
3954;DHT22;1991;48.682;9.030;2023-09-08T14:57:32;30.70;57.70
3954;DHT22;1991;48.682;9.030;2023-09-08T14:59:58;30.60;58.60
3954;DHT22;1991;48.682;9.030;2023-09-08T15:02:23;30.60;58.30
3954;DHT22;1991;48.682;9.030;2023-09-08T15:04:49;30.60;57.50
3954;DHT22;1991;48.682;9.030;2023-09-08T15:07:14;30.40;56.70
3954;DHT22;1991;48.682;9.030;2023-09-08T15:09:40;30.30;58.10
3954;DHT22;1991;48.682;9.030;2023-09-08T15:12:06;30.20;57.60
3954;DHT22;1991;48.682;9.030;2023-09-08T15:14:31;30.10;57.90
3954;DHT22;1991;48.682;9.030;2023-09-08T15:16:57;30.10;57.40
3954;DHT22;1991;48.682;9.030;2023-09-08T15:19:23;30.00;57.70
3954;DHT22;1991;48.682;9.030;2023-09-08T15:21:48;29.90;57.10
3954;DHT22;1991;48.682;9.030;2023-09-08T15:24:15;29.80;57.50
3954;DHT22;1991;48.682;9.030;2023-09-08T15:26:41;29.90;58.00
3954;DHT22;1991;48.682;9.030;2023-09-08T15:29:06;30.00;57.20
3954;DHT22;1991;48.682;9.030;2023-09-08T15:31:32;29.90;57.90
3954;DHT22;1991;48.682;9.030;2023-09-08T15:33:57;29.90;57.20
3954;DHT22;1991;48.682;9.030;2023-09-08T15:36:23;29.90;58.40
3954;DHT22;1991;48.682;9.030;2023-09-08T15:38:48;29.90;57.70
3954;DHT22;1991;48.682;9.030;2023-09-08T15:41:16;29.90;58.40
3954;DHT22;1991;48.682;9.030;2023-09-08T15:43:44;29.90;57.10
3954;DHT22;1991;48.682;9.030;2023-09-08T15:46:10;29.80;58.30
3954;DHT22;1991;48.682;9.030;2023-09-08T15:48:39;29.80;58.20
3954;DHT22;1991;48.682;9.030;2023-09-08T15:51:06;29.60;57.60
3954;DHT22;1991;48.682;9.030;2023-09-08T15:53:32;29.60;58.20
3954;DHT22;1991;48.682;9.030;2023-09-08T15:55:57;29.60;58.50
3954;DHT22;1991;48.682;9.030;2023-09-08T15:58:23;29.50;57.60
3954;DHT22;1991;48.682;9.030;2023-09-08T16:00:49;29.50;58.00
3954;DHT22;1991;48.682;9.030;2023-09-08T16:03:14;29.30;58.10
3954;DHT22;1991;48.682;9.030;2023-09-08T16:05:40;29.20;58.00
3954;DHT22;1991;48.682;9.030;2023-09-08T16:08:06;29.00;58.00